Johannesburg, South Africa
Current Conditions -  °F | °C
As of 1:00 PM on Sunday 23 Nov 2014 (Local Time) from FAOR Reporting Station
Broken Clouds Broken Clouds  
Wind Chill: 59°   Ceiling: 2500
Heat Index: 59°   Visibility: 6mi
Dew Point: 54°   Wind: 8mph
Humidity: 82%   Direction: 310°NW
Pressure: 30.3"   Gusts: 20mph
Location:  26.19°S, 28.04°E
Report Text: FAOR 231100Z 31007G17KT 250V340 9999 FEW010 BKN025 15/12 Q1026 NOSIG
Loading
Personal Weather Stations






























Interactive Weather Map New forecast layout! Learn more

10-Day Weather Forecast

Advertisements
Track Severe Weather on mobile